sensor_id;sensor_type;location;lat;lon;timestamp;pressure;altitude;pressure_sealevel;temperature;humidity
52032;BME280;38044;45.148;39.604;2023-08-01T00:00:51;100324.00;;;22.84;61.61
52032;BME280;38044;45.148;39.604;2023-08-01T00:03:17;100321.44;;;22.57;62.93
52032;BME280;38044;45.148;39.604;2023-08-01T00:05:43;100331.56;;;22.53;63.42
52032;BME280;38044;45.148;39.604;2023-08-01T00:08:13;100327.28;;;22.52;63.38
52032;BME280;38044;45.148;39.604;2023-08-01T00:10:40;100323.69;;;22.48;63.18
52032;BME280;38044;45.148;39.604;2023-08-01T00:13:07;100323.59;;;22.37;64.50
52032;BME280;38044;45.148;39.604;2023-08-01T00:15:33;100323.56;;;22.34;63.96
52032;BME280;38044;45.148;39.604;2023-08-01T00:17:59;100318.16;;;22.41;63.63
52032;BME280;38044;45.148;39.604;2023-08-01T00:20:25;100323.13;;;22.32;64.08
52032;BME280;38044;45.148;39.604;2023-08-01T00:22:51;100321.13;;;22.25;64.70
52032;BME280;38044;45.148;39.604;2023-08-01T00:25:18;100314.44;;;22.22;64.65
52032;BME280;38044;45.148;39.604;2023-08-01T00:27:44;100311.97;;;22.10;65.39
52032;BME280;38044;45.148;39.604;2023-08-01T00:30:10;100312.28;;;22.05;64.86
52032;BME280;38044;45.148;39.604;2023-08-01T00:32:36;100318.94;;;22.04;65.30
52032;BME280;38044;45.148;39.604;2023-08-01T00:35:03;100313.31;;;21.90;66.04
52032;BME280;38044;45.148;39.604;2023-08-01T00:37:29;100310.63;;;21.97;66.35
52032;BME280;38044;45.148;39.604;2023-08-01T00:39:55;100302.47;;;21.67;68.33
52032;BME280;38044;45.148;39.604;2023-08-01T00:42:21;100311.03;;;21.65;68.26
52032;BME280;38044;45.148;39.604;2023-08-01T00:44:47;100304.00;;;21.64;68.90
52032;BME280;38044;45.148;39.604;2023-08-01T00:47:14;100311.75;;;21.58;69.11
52032;BME280;38044;45.148;39.604;2023-08-01T00:49:40;100310.03;;;21.47;69.89
52032;BME280;38044;45.148;39.604;2023-08-01T00:52:07;100312.94;;;21.34;70.25
52032;BME280;38044;45.148;39.604;2023-08-01T00:54:34;100317.06;;;21.48;70.19
52032;BME280;38044;45.148;39.604;2023-08-01T00:57:05;100319.28;;;21.39;70.77
52032;BME280;38044;45.148;39.604;2023-08-01T00:59:32;100317.97;;;21.55;70.56
52032;BME280;38044;45.148;39.604;2023-08-01T01:01:59;100312.47;;;21.52;70.71
52032;BME280;38044;45.148;39.604;2023-08-01T01:04:26;100314.25;;;21.41;71.53
52032;BME280;38044;45.148;39.604;2023-08-01T01:09:24;100313.09;;;21.42;70.82
52032;BME280;38044;45.148;39.604;2023-08-01T01:11:53;100303.59;;;21.35;70.89
52032;BME280;38044;45.148;39.604;2023-08-01T01:14:19;100306.69;;;21.34;70.99
52032;BME280;38044;45.148;39.604;2023-08-01T01:16:44;100311.53;;;21.41;70.79
52032;BME280;38044;45.148;39.604;2023-08-01T01:19:10;100305.72;;;21.46;70.29
52032;BME280;38044;45.148;39.604;2023-08-01T01:21:38;100306.91;;;21.48;69.87
52032;BME280;38044;45.148;39.604;2023-08-01T01:24:06;100313.16;;;21.49;69.83
52032;BME280;38044;45.148;39.604;2023-08-01T01:26:36;100311.44;;;21.37;71.00
52032;BME280;38044;45.148;39.604;2023-08-01T01:29:03;100310.66;;;21.36;70.40
52032;BME280;38044;45.148;39.604;2023-08-01T01:31:30;100309.81;;;21.32;71.85
52032;BME280;38044;45.148;39.604;2023-08-01T01:33:57;100312.88;;;21.27;71.96
52032;BME280;38044;45.148;39.604;2023-08-01T01:36:23;100309.63;;;21.18;72.76
52032;BME280;38044;45.148;39.604;2023-08-01T01:38:49;100307.06;;;21.06;72.90
52032;BME280;38044;45.148;39.604;2023-08-01T01:41:15;100313.47;;;21.17;73.05
52032;BME280;38044;45.148;39.604;2023-08-01T01:43:41;100317.38;;;21.16;73.10
52032;BME280;38044;45.148;39.604;2023-08-01T01:46:07;100307.41;;;21.01;73.16
52032;BME280;38044;45.148;39.604;2023-08-01T01:48:33;100312.31;;;20.91;73.68
52032;BME280;38044;45.148;39.604;2023-08-01T01:50:58;100314.66;;;20.89;73.70
52032;BME280;38044;45.148;39.604;2023-08-01T01:53:24;100308.22;;;20.78;74.52
52032;BME280;38044;45.148;39.604;2023-08-01T01:55:50;100305.03;;;20.73;74.85
52032;BME280;38044;45.148;39.604;2023-08-01T01:58:16;100297.41;;;20.85;74.06
52032;BME280;38044;45.148;39.604;2023-08-01T02:00:42;100295.06;;;20.84;73.89
52032;BME280;38044;45.148;39.604;2023-08-01T02:03:08;100296.56;;;20.81;74.19
52032;BME280;38044;45.148;39.604;2023-08-01T02:05:40;100291.09;;;20.81;74.49
52032;BME280;38044;45.148;39.604;2023-08-01T02:08:06;100299.50;;;20.69;75.19
52032;BME280;38044;45.148;39.604;2023-08-01T02:10:32;100291.53;;;20.83;74.05
52032;BME280;38044;45.148;39.604;2023-08-01T02:12:58;100297.53;;;20.92;74.06
52032;BME280;38044;45.148;39.604;2023-08-01T02:15:24;100294.38;;;20.90;74.44
52032;BME280;38044;45.148;39.604;2023-08-01T02:17:50;100296.84;;;20.99;73.67
52032;BME280;38044;45.148;39.604;2023-08-01T02:20:16;100306.88;;;21.18;72.76
52032;BME280;38044;45.148;39.604;2023-08-01T02:22:42;100295.63;;;21.23;72.86
52032;BME280;38044;45.148;39.604;2023-08-01T02:25:08;100292.66;;;21.35;72.25
52032;BME280;38044;45.148;39.604;2023-08-01T02:27:34;100300.34;;;21.53;71.94
52032;BME280;38044;45.148;39.604;2023-08-01T02:30:00;100298.84;;;21.59;71.65
52032;BME280;38044;45.148;39.604;2023-08-01T02:32:26;100297.88;;;21.74;71.24
52032;BME280;38044;45.148;39.604;2023-08-01T02:34:51;100291.41;;;21.90;70.24
52032;BME280;38044;45.148;39.604;2023-08-01T02:37:17;100293.81;;;21.95;70.16
52032;BME280;38044;45.148;39.604;2023-08-01T02:39:43;100295.97;;;22.12;69.60
52032;BME280;38044;45.148;39.604;2023-08-01T02:42:09;100298.72;;;22.16;69.14
52032;BME280;38044;45.148;39.604;2023-08-01T02:44:35;100292.78;;;22.10;69.02
52032;BME280;38044;45.148;39.604;2023-08-01T02:47:01;100296.88;;;22.23;68.67
52032;BME280;38044;45.148;39.604;2023-08-01T02:49:27;100300.16;;;22.40;68.37
52032;BME280;38044;45.148;39.604;2023-08-01T02:51:53;100297.16;;;22.52;68.60
52032;BME280;38044;45.148;39.604;2023-08-01T02:54:19;100294.91;;;22.68;67.54
52032;BME280;38044;45.148;39.604;2023-08-01T02:56:44;100298.16;;;22.85;67.10
52032;BME280;38044;45.148;39.604;2023-08-01T02:59:10;100302.22;;;22.98;66.20
52032;BME280;38044;45.148;39.604;2023-08-01T03:01:37;100313.28;;;23.12;65.64
52032;BME280;38044;45.148;39.604;2023-08-01T03:04:04;100311.38;;;23.24;64.66
52032;BME280;38044;45.148;39.604;2023-08-01T03:06:33;100311.06;;;23.32;64.43
52032;BME280;38044;45.148;39.604;2023-08-01T03:09:00;100315.75;;;23.35;64.97
52032;BME280;38044;45.148;39.604;2023-08-01T03:11:26;100313.47;;;23.45;64.34
52032;BME280;38044;45.148;39.604;2023-08-01T03:13:52;100315.16;;;23.71;63.98
52032;BME280;38044;45.148;39.604;2023-08-01T03:16:18;100315.25;;;23.92;63.50
52032;BME280;38044;45.148;39.604;2023-08-01T03:18:44;100322.34;;;24.04;63.03
52032;BME280;38044;45.148;39.604;2023-08-01T03:21:10;100319.97;;;23.99;63.76
52032;BME280;38044;45.148;39.604;2023-08-01T03:23:36;100317.22;;;24.06;63.40
52032;BME280;38044;45.148;39.604;2023-08-01T03:26:02;100317.66;;;24.15;63.45
52032;BME280;38044;45.148;39.604;2023-08-01T03:28:28;100307.06;;;24.14;62.82
52032;BME280;38044;45.148;39.604;2023-08-01T03:30:54;100323.19;;;24.30;62.05
52032;BME280;38044;45.148;39.604;2023-08-01T03:33:20;100327.53;;;24.41;60.99
52032;BME280;38044;45.148;39.604;2023-08-01T03:35:47;100325.16;;;24.36;60.62
52032;BME280;38044;45.148;39.604;2023-08-01T03:38:13;100322.38;;;24.22;60.87
52032;BME280;38044;45.148;39.604;2023-08-01T03:40:39;100318.44;;;24.23;61.47
52032;BME280;38044;45.148;39.604;2023-08-01T03:43:05;100321.66;;;24.61;60.52
52032;BME280;38044;45.148;39.604;2023-08-01T03:45:32;100318.91;;;25.00;59.54
52032;BME280;38044;45.148;39.604;2023-08-01T03:47:58;100321.59;;;25.43;57.82
52032;BME280;38044;45.148;39.604;2023-08-01T03:50:25;100327.28;;;25.95;56.71
52032;BME280;38044;45.148;39.604;2023-08-01T03:52:50;100320.94;;;27.13;53.81
52032;BME280;38044;45.148;39.604;2023-08-01T03:55:17;100317.13;;;27.38;52.72
52032;BME280;38044;45.148;39.604;2023-08-01T03:57:43;100317.19;;;26.93;54.22
52032;BME280;38044;45.148;39.604;2023-08-01T04:00:09;100319.31;;;26.74;54.72
52032;BME280;38044;45.148;39.604;2023-08-01T04:02:43;100320.25;;;27.40;53.67
52032;BME280;38044;45.148;39.604;2023-08-01T04:05:09;100318.84;;;27.93;51.98
52032;BME280;38044;45.148;39.604;2023-08-01T04:07:36;100316.63;;;27.81;52.31
52032;BME280;38044;45.148;39.604;2023-08-01T04:10:03;100323.56;;;27.24;53.41
52032;BME280;38044;45.148;39.604;2023-08-01T04:12:31;100304.16;;;27.35;53.62
52032;BME280;38044;45.148;39.604;2023-08-01T04:14:58;100305.69;;;27.39;53.38
52032;BME280;38044;45.148;39.604;2023-08-01T04:17:24;100302.97;;;27.67;52.97
52032;BME280;38044;45.148;39.604;2023-08-01T04:19:50;100302.06;;;28.62;50.04
52032;BME280;38044;45.148;39.604;2023-08-01T04:22:16;100315.19;;;29.64;48.70
52032;BME280;38044;45.148;39.604;2023-08-01T04:24:41;100322.03;;;30.49;47.00
52032;BME280;38044;45.148;39.604;2023-08-01T04:27:07;100315.13;;;31.48;43.92
52032;BME280;38044;45.148;39.604;2023-08-01T04:29:34;100320.19;;;31.79;43.08
52032;BME280;38044;45.148;39.604;2023-08-01T04:32:00;100322.84;;;31.70;43.71
52032;BME280;38044;45.148;39.604;2023-08-01T04:34:25;100321.56;;;32.38;41.40
52032;BME280;38044;45.148;39.604;2023-08-01T04:36:51;100321.69;;;32.09;41.94
52032;BME280;38044;45.148;39.604;2023-08-01T04:39:17;100328.72;;;32.87;40.86
52032;BME280;38044;45.148;39.604;2023-08-01T04:41:42;100323.09;;;33.34;40.00
52032;BME280;38044;45.148;39.604;2023-08-01T04:44:08;100334.28;;;33.97;38.79
52032;BME280;38044;45.148;39.604;2023-08-01T04:46:34;100334.81;;;34.45;37.45
52032;BME280;38044;45.148;39.604;2023-08-01T04:48:59;100334.28;;;34.78;37.63
52032;BME280;38044;45.148;39.604;2023-08-01T04:51:25;100338.69;;;35.06;36.53
52032;BME280;38044;45.148;39.604;2023-08-01T04:53:50;100340.50;;;35.00;36.94
52032;BME280;38044;45.148;39.604;2023-08-01T04:56:16;100336.75;;;34.85;36.53
52032;BME280;38044;45.148;39.604;2023-08-01T04:58:42;100336.16;;;34.81;37.46
52032;BME280;38044;45.148;39.604;2023-08-01T05:01:07;100341.00;;;35.26;36.70
52032;BME280;38044;45.148;39.604;2023-08-01T05:03:33;100336.72;;;35.77;36.31
52032;BME280;38044;45.148;39.604;2023-08-01T05:05:58;100342.63;;;35.79;35.28
52032;BME280;38044;45.148;39.604;2023-08-01T05:08:24;100343.38;;;35.79;35.52
52032;BME280;38044;45.148;39.604;2023-08-01T05:10:50;100341.06;;;35.78;34.99
52032;BME280;38044;45.148;39.604;2023-08-01T05:13:15;100345.94;;;36.11;35.33
52032;BME280;38044;45.148;39.604;2023-08-01T05:15:43;100339.13;;;36.69;34.95
52032;BME280;38044;45.148;39.604;2023-08-01T05:18:09;100330.75;;;37.08;33.66
52032;BME280;38044;45.148;39.604;2023-08-01T05:20:35;100336.47;;;36.89;33.68
52032;BME280;38044;45.148;39.604;2023-08-01T05:23:00;100326.47;;;36.49;34.96
52032;BME280;38044;45.148;39.604;2023-08-01T05:25:26;100324.16;;;36.72;34.04
52032;BME280;38044;45.148;39.604;2023-08-01T05:27:51;100322.41;;;36.98;33.81
52032;BME280;38044;45.148;39.604;2023-08-01T05:30:17;100326.09;;;37.05;33.53
52032;BME280;38044;45.148;39.604;2023-08-01T05:32:43;100324.91;;;36.48;34.16
52032;BME280;38044;45.148;39.604;2023-08-01T05:35:12;100322.84;;;37.06;33.72
52032;BME280;38044;45.148;39.604;2023-08-01T05:37:37;100320.06;;;37.36;33.37
52032;BME280;38044;45.148;39.604;2023-08-01T05:40:03;100330.97;;;37.19;33.21
52032;BME280;38044;45.148;39.604;2023-08-01T05:42:29;100327.25;;;37.67;33.42
52032;BME280;38044;45.148;39.604;2023-08-01T05:44:55;100328.94;;;37.94;32.34
52032;BME280;38044;45.148;39.604;2023-08-01T05:47:20;100336.94;;;37.12;33.68
52032;BME280;38044;45.148;39.604;2023-08-01T05:49:48;100337.59;;;37.75;33.12
52032;BME280;38044;45.148;39.604;2023-08-01T05:52:13;100336.59;;;37.78;33.54
52032;BME280;38044;45.148;39.604;2023-08-01T05:54:39;100342.94;;;38.23;33.54
52032;BME280;38044;45.148;39.604;2023-08-01T05:57:05;100339.03;;;38.00;33.66
52032;BME280;38044;45.148;39.604;2023-08-01T05:59:30;100341.81;;;37.71;33.77
52032;BME280;38044;45.148;39.604;2023-08-01T06:01:56;100335.44;;;37.40;34.54
52032;BME280;38044;45.148;39.604;2023-08-01T06:04:22;100343.94;;;37.91;33.99
52032;BME280;38044;45.148;39.604;2023-08-01T06:06:47;100343.47;;;38.07;33.22
52032;BME280;38044;45.148;39.604;2023-08-01T06:09:13;100338.91;;;38.45;33.00
52032;BME280;38044;45.148;39.604;2023-08-01T06:11:38;100339.09;;;37.47;34.11
52032;BME280;38044;45.148;39.604;2023-08-01T06:14:04;100343.66;;;37.29;34.70
52032;BME280;38044;45.148;39.604;2023-08-01T06:16:29;100341.81;;;37.85;33.50
52032;BME280;38044;45.148;39.604;2023-08-01T06:18:55;100347.81;;;37.78;32.92
52032;BME280;38044;45.148;39.604;2023-08-01T06:21:21;100339.28;;;37.87;32.59
52032;BME280;38044;45.148;39.604;2023-08-01T06:23:47;100344.81;;;37.82;32.89
52032;BME280;38044;45.148;39.604;2023-08-01T06:26:12;100350.31;;;37.91;33.19
52032;BME280;38044;45.148;39.604;2023-08-01T06:28:40;100339.53;;;37.69;33.22
52032;BME280;38044;45.148;39.604;2023-08-01T06:31:06;100342.00;;;37.97;33.63
52032;BME280;38044;45.148;39.604;2023-08-01T06:33:32;100339.88;;;38.06;32.96
52032;BME280;38044;45.148;39.604;2023-08-01T06:35:57;100340.75;;;38.48;33.09
52032;BME280;38044;45.148;39.604;2023-08-01T06:38:23;100342.28;;;38.14;33.82
52032;BME280;38044;45.148;39.604;2023-08-01T06:40:48;100340.16;;;38.08;33.99
52032;BME280;38044;45.148;39.604;2023-08-01T06:43:14;100341.16;;;38.26;33.96
52032;BME280;38044;45.148;39.604;2023-08-01T06:45:39;100352.88;;;38.60;32.64
52032;BME280;38044;45.148;39.604;2023-08-01T06:48:05;100352.22;;;38.29;32.59
52032;BME280;38044;45.148;39.604;2023-08-01T06:50:30;100355.28;;;38.31;33.01
52032;BME280;38044;45.148;39.604;2023-08-01T06:52:56;100348.53;;;38.59;32.57
52032;BME280;38044;45.148;39.604;2023-08-01T06:55:21;100352.34;;;38.96;32.59
52032;BME280;38044;45.148;39.604;2023-08-01T06:57:47;100348.16;;;38.86;32.97
52032;BME280;38044;45.148;39.604;2023-08-01T07:00:13;100355.03;;;39.32;32.70
52032;BME280;38044;45.148;39.604;2023-08-01T07:02:38;100355.16;;;38.05;34.15
52032;BME280;38044;45.148;39.604;2023-08-01T07:05:04;100349.72;;;37.42;34.53
52032;BME280;38044;45.148;39.604;2023-08-01T07:07:30;100346.38;;;37.68;34.50
52032;BME280;38044;45.148;39.604;2023-08-01T07:09:55;100341.31;;;38.37;34.14
52032;BME280;38044;45.148;39.604;2023-08-01T07:12:21;100343.44;;;38.98;33.26
52032;BME280;38044;45.148;39.604;2023-08-01T07:14:46;100347.78;;;38.79;32.72
52032;BME280;38044;45.148;39.604;2023-08-01T07:17:12;100343.44;;;38.98;32.15
52032;BME280;38044;45.148;39.604;2023-08-01T07:19:37;100345.56;;;39.29;31.28
52032;BME280;38044;45.148;39.604;2023-08-01T07:22:03;100341.53;;;39.36;31.59
52032;BME280;38044;45.148;39.604;2023-08-01T07:24:29;100342.25;;;39.31;31.27
52032;BME280;38044;45.148;39.604;2023-08-01T07:26:54;100346.56;;;39.06;31.93
52032;BME280;38044;45.148;39.604;2023-08-01T07:29:20;100346.31;;;39.30;31.85
52032;BME280;38044;45.148;39.604;2023-08-01T07:31:45;100344.03;;;39.86;31.99
52032;BME280;38044;45.148;39.604;2023-08-01T07:34:11;100339.94;;;39.55;31.59
52032;BME280;38044;45.148;39.604;2023-08-01T07:36:36;100337.31;;;38.79;32.69
52032;BME280;38044;45.148;39.604;2023-08-01T07:39:02;100344.75;;;39.29;33.18
52032;BME280;38044;45.148;39.604;2023-08-01T07:41:28;100336.06;;;39.27;32.28
52032;BME280;38044;45.148;39.604;2023-08-01T07:43:54;100334.53;;;40.15;31.65
52032;BME280;38044;45.148;39.604;2023-08-01T07:46:19;100339.22;;;40.24;31.73
52032;BME280;38044;45.148;39.604;2023-08-01T07:48:45;100341.69;;;40.16;31.21
52032;BME280;38044;45.148;39.604;2023-08-01T07:51:10;100335.44;;;39.69;31.25
52032;BME280;38044;45.148;39.604;2023-08-01T07:53:37;100335.84;;;39.04;31.97
52032;BME280;38044;45.148;39.604;2023-08-01T07:56:02;100336.09;;;38.45;33.35
52032;BME280;38044;45.148;39.604;2023-08-01T07:58:28;100343.41;;;39.18;32.73
52032;BME280;38044;45.148;39.604;2023-08-01T08:00:54;100338.75;;;39.99;31.82
52032;BME280;38044;45.148;39.604;2023-08-01T08:03:20;100332.59;;;40.81;30.25
52032;BME280;38044;45.148;39.604;2023-08-01T08:05:48;100332.41;;;39.41;32.56
52032;BME280;38044;45.148;39.604;2023-08-01T08:08:14;100331.34;;;38.92;33.73
52032;BME280;38044;45.148;39.604;2023-08-01T08:10:40;100332.66;;;39.43;33.39
52032;BME280;38044;45.148;39.604;2023-08-01T08:13:05;100328.78;;;39.35;32.20
52032;BME280;38044;45.148;39.604;2023-08-01T08:15:31;100329.09;;;40.49;32.29
52032;BME280;38044;45.148;39.604;2023-08-01T08:18:00;100323.56;;;40.66;31.46
52032;BME280;38044;45.148;39.604;2023-08-01T08:20:26;100325.31;;;41.79;31.83
52032;BME280;38044;45.148;39.604;2023-08-01T08:22:51;100327.84;;;41.27;30.80
52032;BME280;38044;45.148;39.604;2023-08-01T08:25:17;100326.06;;;40.09;32.43
52032;BME280;38044;45.148;39.604;2023-08-01T08:27:43;100323.34;;;39.89;33.07
52032;BME280;38044;45.148;39.604;2023-08-01T08:30:08;100324.97;;;40.01;32.61
52032;BME280;38044;45.148;39.604;2023-08-01T08:32:35;100321.31;;;39.32;33.70
52032;BME280;38044;45.148;39.604;2023-08-01T08:35:00;100318.72;;;39.86;32.99
52032;BME280;38044;45.148;39.604;2023-08-01T08:37:26;100321.88;;;39.36;33.13
52032;BME280;38044;45.148;39.604;2023-08-01T08:39:51;100320.06;;;39.64;32.64
52032;BME280;38044;45.148;39.604;2023-08-01T08:42:20;100312.03;;;39.52;32.81
52032;BME280;38044;45.148;39.604;2023-08-01T08:44:45;100319.19;;;38.60;34.47
52032;BME280;38044;45.148;39.604;2023-08-01T08:47:14;100313.75;;;39.44;32.24
52032;BME280;38044;45.148;39.604;2023-08-01T08:49:42;100314.59;;;39.81;32.12
52032;BME280;38044;45.148;39.604;2023-08-01T08:52:09;100310.25;;;40.72;31.79
52032;BME280;38044;45.148;39.604;2023-08-01T08:54:34;100311.75;;;41.50;30.29
52032;BME280;38044;45.148;39.604;2023-08-01T08:57:01;100314.91;;;40.86;30.74
52032;BME280;38044;45.148;39.604;2023-08-01T08:59:26;100301.41;;;38.89;32.17
52032;BME280;38044;45.148;39.604;2023-08-01T09:01:52;100303.31;;;38.57;33.82
52032;BME280;38044;45.148;39.604;2023-08-01T09:04:17;100294.91;;;37.86;33.28
52032;BME280;38044;45.148;39.604;2023-08-01T09:06:48;100300.63;;;37.17;34.97
52032;BME280;38044;45.148;39.604;2023-08-01T09:09:15;100301.84;;;37.91;33.59
52032;BME280;38044;45.148;39.604;2023-08-01T09:11:47;100296.72;;;38.60;33.62
52032;BME280;38044;45.148;39.604;2023-08-01T09:14:14;100301.44;;;38.48;35.39
52032;BME280;38044;45.148;39.604;2023-08-01T09:16:40;100304.41;;;39.06;34.89
52032;BME280;38044;45.148;39.604;2023-08-01T09:19:06;100306.97;;;39.30;35.15
52032;BME280;38044;45.148;39.604;2023-08-01T09:21:32;100304.22;;;38.89;35.61
52032;BME280;38044;45.148;39.604;2023-08-01T09:24:09;100301.38;;;39.93;34.14
52032;BME280;38044;45.148;39.604;2023-08-01T09:26:35;100301.88;;;40.35;32.67
52032;BME280;38044;45.148;39.604;2023-08-01T09:29:01;100298.44;;;39.76;32.90
52032;BME280;38044;45.148;39.604;2023-08-01T09:31:27;100311.38;;;39.36;34.02
52032;BME280;38044;45.148;39.604;2023-08-01T09:33:53;100302.91;;;40.37;33.28
52032;BME280;38044;45.148;39.604;2023-08-01T09:36:22;100300.59;;;40.95;31.45
52032;BME280;38044;45.148;39.604;2023-08-01T09:38:48;100298.19;;;40.17;32.33
52032;BME280;38044;45.148;39.604;2023-08-01T09:41:18;100297.22;;;39.83;32.25
52032;BME280;38044;45.148;39.604;2023-08-01T09:43:44;100295.81;;;40.04;32.00
52032;BME280;38044;45.148;39.604;2023-08-01T09:46:11;100301.31;;;40.79;32.98
52032;BME280;38044;45.148;39.604;2023-08-01T09:48:36;100299.13;;;41.45;31.04
52032;BME280;38044;45.148;39.604;2023-08-01T09:51:09;100294.78;;;41.22;31.25
52032;BME280;38044;45.148;39.604;2023-08-01T09:53:37;100292.72;;;41.11;31.23
52032;BME280;38044;45.148;39.604;2023-08-01T09:56:12;100290.16;;;41.69;31.20
52032;BME280;38044;45.148;39.604;2023-08-01T09:58:42;100295.56;;;41.67;31.09
52032;BME280;38044;45.148;39.604;2023-08-01T10:01:08;100290.19;;;41.35;30.35
52032;BME280;38044;45.148;39.604;2023-08-01T10:03:34;100288.34;;;41.10;30.03
52032;BME280;38044;45.148;39.604;2023-08-01T10:06:00;100289.00;;;39.48;32.82
52032;BME280;38044;45.148;39.604;2023-08-01T10:08:26;100287.44;;;39.20;33.14
52032;BME280;38044;45.148;39.604;2023-08-01T10:10:53;100285.56;;;38.86;33.76
52032;BME280;38044;45.148;39.604;2023-08-01T10:13:22;100283.03;;;38.67;35.64
52032;BME280;38044;45.148;39.604;2023-08-01T10:15:48;100284.91;;;38.35;35.92
52032;BME280;38044;45.148;39.604;2023-08-01T10:18:15;100282.41;;;38.02;34.65
52032;BME280;38044;45.148;39.604;2023-08-01T10:20:41;100275.47;;;37.82;35.84
52032;BME280;38044;45.148;39.604;2023-08-01T10:23:08;100283.63;;;37.80;36.28
52032;BME280;38044;45.148;39.604;2023-08-01T10:25:34;100277.03;;;37.69;36.23
52032;BME280;38044;45.148;39.604;2023-08-01T10:28:03;100290.41;;;37.59;35.16
52032;BME280;38044;45.148;39.604;2023-08-01T10:30:29;100272.34;;;36.91;35.34
52032;BME280;38044;45.148;39.604;2023-08-01T10:32:56;100276.44;;;37.05;36.56
52032;BME280;38044;45.148;39.604;2023-08-01T10:35:36;100276.66;;;37.02;35.92
52032;BME280;38044;45.148;39.604;2023-08-01T10:38:06;100272.22;;;37.39;36.36
52032;BME280;38044;45.148;39.604;2023-08-01T10:40:35;100265.06;;;37.09;36.37
52032;BME280;38044;45.148;39.604;2023-08-01T10:43:01;100259.72;;;36.96;36.30
52032;BME280;38044;45.148;39.604;2023-08-01T10:45:26;100263.16;;;36.76;37.24
52032;BME280;38044;45.148;39.604;2023-08-01T10:47:54;100263.69;;;36.65;37.05
52032;BME280;38044;45.148;39.604;2023-08-01T10:50:19;100267.97;;;36.51;37.22
52032;BME280;38044;45.148;39.604;2023-08-01T10:52:45;100260.59;;;36.15;37.57
52032;BME280;38044;45.148;39.604;2023-08-01T10:55:11;100268.09;;;36.33;37.89
52032;BME280;38044;45.148;39.604;2023-08-01T10:57:46;100259.72;;;36.09;36.98
52032;BME280;38044;45.148;39.604;2023-08-01T11:00:15;100260.38;;;36.28;38.01
52032;BME280;38044;45.148;39.604;2023-08-01T11:02:40;100258.91;;;36.08;38.46
52032;BME280;38044;45.148;39.604;2023-08-01T11:05:06;100264.28;;;36.45;38.34
52032;BME280;38044;45.148;39.604;2023-08-01T11:07:33;100261.13;;;36.28;38.37
52032;BME280;38044;45.148;39.604;2023-08-01T11:10:02;100261.97;;;36.44;39.70
52032;BME280;38044;45.148;39.604;2023-08-01T11:12:28;100264.66;;;36.38;39.13
52032;BME280;38044;45.148;39.604;2023-08-01T11:14:58;100261.22;;;36.43;38.21
52032;BME280;38044;45.148;39.604;2023-08-01T11:17:24;100267.47;;;36.38;38.86
52032;BME280;38044;45.148;39.604;2023-08-01T11:19:50;100259.13;;;35.96;39.38
52032;BME280;38044;45.148;39.604;2023-08-01T11:22:16;100268.03;;;35.85;38.75
52032;BME280;38044;45.148;39.604;2023-08-01T11:24:44;100260.31;;;36.13;38.08
52032;BME280;38044;45.148;39.604;2023-08-01T11:27:15;100258.78;;;36.12;37.86
52032;BME280;38044;45.148;39.604;2023-08-01T11:29:40;100251.84;;;36.22;38.96
52032;BME280;38044;45.148;39.604;2023-08-01T11:32:06;100254.31;;;36.53;38.11
52032;BME280;38044;45.148;39.604;2023-08-01T11:34:39;100254.72;;;36.13;38.67
52032;BME280;38044;45.148;39.604;2023-08-01T11:37:05;100260.06;;;36.50;38.66
52032;BME280;38044;45.148;39.604;2023-08-01T11:39:30;100255.19;;;36.36;38.57
52032;BME280;38044;45.148;39.604;2023-08-01T11:41:56;100254.41;;;36.35;37.77
52032;BME280;38044;45.148;39.604;2023-08-01T11:44:25;100255.53;;;36.28;38.47
52032;BME280;38044;45.148;39.604;2023-08-01T11:46:50;100253.16;;;36.36;37.79
52032;BME280;38044;45.148;39.604;2023-08-01T11:49:16;100255.72;;;36.25;38.22
52032;BME280;38044;45.148;39.604;2023-08-01T11:51:44;100254.13;;;36.00;38.46
52032;BME280;38044;45.148;39.604;2023-08-01T11:54:11;100252.19;;;35.82;39.21
52032;BME280;38044;45.148;39.604;2023-08-01T11:56:38;100244.53;;;35.58;38.99
52032;BME280;38044;45.148;39.604;2023-08-01T11:59:14;100239.53;;;35.62;40.81
52032;BME280;38044;45.148;39.604;2023-08-01T12:01:41;100241.69;;;35.68;39.19
52032;BME280;38044;45.148;39.604;2023-08-01T12:04:07;100243.00;;;35.57;39.46
52032;BME280;38044;45.148;39.604;2023-08-01T12:06:33;100244.59;;;35.40;39.50
52032;BME280;38044;45.148;39.604;2023-08-01T12:09:07;100246.56;;;35.39;40.48
52032;BME280;38044;45.148;39.604;2023-08-01T12:11:33;100251.09;;;35.37;41.26
52032;BME280;38044;45.148;39.604;2023-08-01T12:14:02;100246.72;;;35.45;39.85
52032;BME280;38044;45.148;39.604;2023-08-01T12:16:28;100237.25;;;35.42;40.23
52032;BME280;38044;45.148;39.604;2023-08-01T12:18:54;100241.47;;;35.38;40.63
52032;BME280;38044;45.148;39.604;2023-08-01T12:21:20;100238.72;;;35.29;40.00
52032;BME280;38044;45.148;39.604;2023-08-01T12:23:46;100238.72;;;35.29;41.13
52032;BME280;38044;45.148;39.604;2023-08-01T12:26:12;100236.47;;;35.42;41.04
52032;BME280;38044;45.148;39.604;2023-08-01T12:28:38;100238.41;;;35.27;41.19
52032;BME280;38044;45.148;39.604;2023-08-01T12:31:04;100235.63;;;35.08;40.79
52032;BME280;38044;45.148;39.604;2023-08-01T12:33:30;100234.88;;;35.08;41.54
52032;BME280;38044;45.148;39.604;2023-08-01T12:35:56;100238.56;;;35.14;41.54
52032;BME280;38044;45.148;39.604;2023-08-01T12:38:22;100236.56;;;35.14;41.36